Terminal Aerodrome Forecast
Issued by NWS

Home | Current Version | Previous Version | Graphics & Text | Print | Product List | Glossary On
Versions: 1 2 3 4 5 6 7 8 9 10 11 12 13 14 15 16 17 18 19 20 21 22
000
FTUS43 KTOP 181111 AAB
TAFFOE
TAF AMD
KFOE 181111Z 1811/1906 10006KT 1SM BR BKN002 OVC040
      TEMPO 1811/1813 5SM BR SCT002 OVC040
     FM181500 15008KT 4SM -SHRA VCTS OVC013CB
     FM181800 16010KT P6SM BKN070=

USA.gov is the U.S. government's official web portal to all federal, state and local government web resources and services.